sensor_id;sensor_type;location;lat;lon;timestamp;P1;durP1;ratioP1;P2;durP2;ratioP2
62947;SDS011;51940;52.126;-0.994;2023-02-26T00:00:29;10.90;;;2.30;;
62947;SDS011;51940;52.126;-0.994;2023-02-26T00:02:55;9.20;;;1.90;;
62947;SDS011;51940;52.126;-0.994;2023-02-26T00:05:21;4.80;;;2.20;;
62947;SDS011;51940;52.126;-0.994;2023-02-26T00:07:46;6.40;;;2.20;;
62947;SDS011;51940;52.126;-0.994;2023-02-26T00:10:12;4.30;;;2.30;;
62947;SDS011;51940;52.126;-0.994;2023-02-26T00:12:40;5.60;;;2.20;;
62947;SDS011;51940;52.126;-0.994;2023-02-26T00:15:07;4.50;;;2.00;;
62947;SDS011;51940;52.126;-0.994;2023-02-26T00:20:20;5.50;;;2.40;;
62947;SDS011;51940;52.126;-0.994;2023-02-26T00:22:46;7.10;;;2.30;;
62947;SDS011;51940;52.126;-0.994;2023-02-26T00:25:12;10.40;;;2.40;;
62947;SDS011;51940;52.126;-0.994;2023-02-26T00:27:38;5.70;;;2.50;;
62947;SDS011;51940;52.126;-0.994;2023-02-26T00:30:05;6.80;;;3.00;;
62947;SDS011;51940;52.126;-0.994;2023-02-26T00:32:33;5.80;;;2.40;;
62947;SDS011;51940;52.126;-0.994;2023-02-26T00:35:03;6.80;;;2.30;;
62947;SDS011;51940;52.126;-0.994;2023-02-26T00:42:47;7.90;;;2.60;;
62947;SDS011;51940;52.126;-0.994;2023-02-26T00:45:13;6.60;;;2.50;;
62947;SDS011;51940;52.126;-0.994;2023-02-26T00:50:21;6.60;;;2.60;;
62947;SDS011;51940;52.126;-0.994;2023-02-26T00:53:06;7.20;;;2.20;;
62947;SDS011;51940;52.126;-0.994;2023-02-26T00:55:43;8.80;;;3.10;;
62947;SDS011;51940;52.126;-0.994;2023-02-26T00:58:08;5.20;;;2.90;;
62947;SDS011;51940;52.126;-0.994;2023-02-26T01:00:34;5.70;;;3.10;;
62947;SDS011;51940;52.126;-0.994;2023-02-26T01:02:59;8.50;;;2.60;;
62947;SDS011;51940;52.126;-0.994;2023-02-26T01:05:27;8.20;;;2.80;;
62947;SDS011;51940;52.126;-0.994;2023-02-26T01:07:58;9.80;;;3.10;;
62947;SDS011;51940;52.126;-0.994;2023-02-26T01:10:34;7.90;;;2.90;;
62947;SDS011;51940;52.126;-0.994;2023-02-26T01:13:00;4.00;;;2.20;;
62947;SDS011;51940;52.126;-0.994;2023-02-26T01:15:26;10.40;;;2.60;;
62947;SDS011;51940;52.126;-0.994;2023-02-26T01:18:01;9.60;;;2.90;;
62947;SDS011;51940;52.126;-0.994;2023-02-26T01:20:36;6.60;;;2.50;;
62947;SDS011;51940;52.126;-0.994;2023-02-26T01:23:15;9.70;;;3.00;;
62947;SDS011;51940;52.126;-0.994;2023-02-26T01:28:20;6.50;;;2.30;;
62947;SDS011;51940;52.126;-0.994;2023-02-26T01:30:45;6.30;;;2.50;;
62947;SDS011;51940;52.126;-0.994;2023-02-26T01:36:05;5.80;;;2.50;;
62947;SDS011;51940;52.126;-0.994;2023-02-26T01:41:30;5.90;;;2.40;;
62947;SDS011;51940;52.126;-0.994;2023-02-26T01:44:13;8.80;;;2.30;;
62947;SDS011;51940;52.126;-0.994;2023-02-26T01:46:58;6.80;;;2.30;;
62947;SDS011;51940;52.126;-0.994;2023-02-26T01:49:26;6.60;;;2.20;;
62947;SDS011;51940;52.126;-0.994;2023-02-26T01:51:53;11.70;;;3.00;;
62947;SDS011;51940;52.126;-0.994;2023-02-26T01:54:22;6.40;;;2.20;;
62947;SDS011;51940;52.126;-0.994;2023-02-26T01:56:57;7.30;;;2.30;;
62947;SDS011;51940;52.126;-0.994;2023-02-26T01:59:29;6.10;;;2.40;;
62947;SDS011;51940;52.126;-0.994;2023-02-26T02:01:56;5.70;;;2.20;;
62947;SDS011;51940;52.126;-0.994;2023-02-26T02:04:24;3.00;;;2.30;;
62947;SDS011;51940;52.126;-0.994;2023-02-26T02:06:52;4.00;;;2.20;;
62947;SDS011;51940;52.126;-0.994;2023-02-26T02:09:19;6.90;;;2.50;;
62947;SDS011;51940;52.126;-0.994;2023-02-26T02:11:58;4.10;;;2.00;;
62947;SDS011;51940;52.126;-0.994;2023-02-26T02:28:13;7.30;;;2.50;;
62947;SDS011;51940;52.126;-0.994;2023-02-26T02:33:51;6.20;;;2.40;;
62947;SDS011;51940;52.126;-0.994;2023-02-26T02:36:35;3.40;;;2.20;;
62947;SDS011;51940;52.126;-0.994;2023-02-26T02:39:14;5.50;;;2.30;;
62947;SDS011;51940;52.126;-0.994;2023-02-26T02:41:53;8.80;;;2.60;;
62947;SDS011;51940;52.126;-0.994;2023-02-26T02:44:35;6.80;;;2.30;;
62947;SDS011;51940;52.126;-0.994;2023-02-26T02:47:04;4.80;;;2.40;;
62947;SDS011;51940;52.126;-0.994;2023-02-26T02:49:51;7.80;;;2.50;;
62947;SDS011;51940;52.126;-0.994;2023-02-26T02:55:08;4.60;;;2.40;;
62947;SDS011;51940;52.126;-0.994;2023-02-26T02:57:42;6.10;;;3.00;;
62947;SDS011;51940;52.126;-0.994;2023-02-26T03:00:15;8.50;;;3.00;;
62947;SDS011;51940;52.126;-0.994;2023-02-26T03:02:48;11.40;;;3.00;;
62947;SDS011;51940;52.126;-0.994;2023-02-26T03:05:21;9.80;;;3.00;;
62947;SDS011;51940;52.126;-0.994;2023-02-26T03:08:07;5.20;;;2.70;;
62947;SDS011;51940;52.126;-0.994;2023-02-26T03:10:36;10.60;;;3.50;;
62947;SDS011;51940;52.126;-0.994;2023-02-26T03:13:02;6.30;;;3.00;;
62947;SDS011;51940;52.126;-0.994;2023-02-26T03:21:03;6.90;;;2.50;;
62947;SDS011;51940;52.126;-0.994;2023-02-26T03:23:35;6.80;;;2.90;;
62947;SDS011;51940;52.126;-0.994;2023-02-26T03:26:22;7.00;;;2.90;;
62947;SDS011;51940;52.126;-0.994;2023-02-26T03:31:46;7.70;;;2.50;;
62947;SDS011;51940;52.126;-0.994;2023-02-26T03:37:21;6.00;;;2.50;;
62947;SDS011;51940;52.126;-0.994;2023-02-26T03:39:54;6.10;;;2.30;;
62947;SDS011;51940;52.126;-0.994;2023-02-26T03:45:29;6.70;;;2.90;;
62947;SDS011;51940;52.126;-0.994;2023-02-26T03:47:58;5.20;;;2.70;;
62947;SDS011;51940;52.126;-0.994;2023-02-26T03:50:28;8.40;;;2.60;;
62947;SDS011;51940;52.126;-0.994;2023-02-26T03:53:09;4.00;;;2.30;;
62947;SDS011;51940;52.126;-0.994;2023-02-26T03:55:41;5.80;;;2.60;;
62947;SDS011;51940;52.126;-0.994;2023-02-26T03:58:12;5.30;;;2.50;;
62947;SDS011;51940;52.126;-0.994;2023-02-26T04:00:38;10.60;;;2.40;;
62947;SDS011;51940;52.126;-0.994;2023-02-26T04:03:10;8.40;;;2.40;;
62947;SDS011;51940;52.126;-0.994;2023-02-26T04:05:57;6.30;;;2.50;;
62947;SDS011;51940;52.126;-0.994;2023-02-26T04:08:25;6.70;;;2.40;;
62947;SDS011;51940;52.126;-0.994;2023-02-26T04:10:52;7.30;;;2.80;;
62947;SDS011;51940;52.126;-0.994;2023-02-26T04:13:23;5.00;;;2.50;;
62947;SDS011;51940;52.126;-0.994;2023-02-26T04:15:50;6.60;;;2.70;;
62947;SDS011;51940;52.126;-0.994;2023-02-26T04:18:17;8.40;;;2.90;;
62947;SDS011;51940;52.126;-0.994;2023-02-26T04:20:43;4.40;;;2.70;;
62947;SDS011;51940;52.126;-0.994;2023-02-26T04:23:10;6.20;;;2.50;;
62947;SDS011;51940;52.126;-0.994;2023-02-26T04:25:35;6.30;;;2.10;;
62947;SDS011;51940;52.126;-0.994;2023-02-26T04:28:01;5.00;;;2.60;;
62947;SDS011;51940;52.126;-0.994;2023-02-26T04:30:26;12.80;;;3.00;;
62947;SDS011;51940;52.126;-0.994;2023-02-26T04:32:53;9.40;;;2.70;;
62947;SDS011;51940;52.126;-0.994;2023-02-26T04:35:18;9.60;;;3.10;;
62947;SDS011;51940;52.126;-0.994;2023-02-26T04:37:44;9.30;;;2.80;;
62947;SDS011;51940;52.126;-0.994;2023-02-26T04:40:09;8.80;;;2.40;;
62947;SDS011;51940;52.126;-0.994;2023-02-26T04:42:35;7.50;;;2.50;;
62947;SDS011;51940;52.126;-0.994;2023-02-26T04:45:02;8.10;;;3.40;;
62947;SDS011;51940;52.126;-0.994;2023-02-26T04:47:29;8.80;;;2.30;;
62947;SDS011;51940;52.126;-0.994;2023-02-26T04:49:54;8.90;;;2.80;;
62947;SDS011;51940;52.126;-0.994;2023-02-26T04:52:19;4.40;;;2.40;;
62947;SDS011;51940;52.126;-0.994;2023-02-26T04:54:45;7.80;;;2.50;;
62947;SDS011;51940;52.126;-0.994;2023-02-26T04:57:11;6.10;;;2.20;;
62947;SDS011;51940;52.126;-0.994;2023-02-26T04:59:36;5.00;;;2.20;;
62947;SDS011;51940;52.126;-0.994;2023-02-26T05:02:03;8.90;;;2.40;;
62947;SDS011;51940;52.126;-0.994;2023-02-26T05:04:29;4.60;;;2.20;;
62947;SDS011;51940;52.126;-0.994;2023-02-26T05:06:55;9.60;;;2.80;;
62947;SDS011;51940;52.126;-0.994;2023-02-26T05:09:21;7.30;;;2.50;;
62947;SDS011;51940;52.126;-0.994;2023-02-26T05:11:46;9.30;;;2.60;;
62947;SDS011;51940;52.126;-0.994;2023-02-26T05:14:13;7.00;;;2.50;;
62947;SDS011;51940;52.126;-0.994;2023-02-26T05:16:39;7.90;;;3.80;;
62947;SDS011;51940;52.126;-0.994;2023-02-26T05:19:04;6.50;;;2.30;;
62947;SDS011;51940;52.126;-0.994;2023-02-26T05:21:30;9.90;;;3.00;;
62947;SDS011;51940;52.126;-0.994;2023-02-26T05:23:55;10.30;;;3.20;;
62947;SDS011;51940;52.126;-0.994;2023-02-26T05:26:23;6.90;;;2.80;;
62947;SDS011;51940;52.126;-0.994;2023-02-26T05:28:48;7.60;;;2.80;;
62947;SDS011;51940;52.126;-0.994;2023-02-26T05:31:14;11.70;;;3.30;;
62947;SDS011;51940;52.126;-0.994;2023-02-26T05:33:39;7.20;;;3.50;;
62947;SDS011;51940;52.126;-0.994;2023-02-26T05:36:07;7.40;;;2.90;;
62947;SDS011;51940;52.126;-0.994;2023-02-26T05:38:33;5.10;;;2.40;;
62947;SDS011;51940;52.126;-0.994;2023-02-26T05:40:59;5.50;;;2.90;;
62947;SDS011;51940;52.126;-0.994;2023-02-26T05:43:25;10.00;;;2.30;;
62947;SDS011;51940;52.126;-0.994;2023-02-26T05:45:52;6.30;;;2.60;;
62947;SDS011;51940;52.126;-0.994;2023-02-26T05:48:19;7.80;;;2.70;;
62947;SDS011;51940;52.126;-0.994;2023-02-26T05:50:46;8.30;;;2.20;;
62947;SDS011;51940;52.126;-0.994;2023-02-26T05:53:13;6.60;;;2.30;;
62947;SDS011;51940;52.126;-0.994;2023-02-26T05:55:38;11.10;;;3.40;;
62947;SDS011;51940;52.126;-0.994;2023-02-26T05:58:04;8.00;;;2.60;;
62947;SDS011;51940;52.126;-0.994;2023-02-26T06:00:29;5.70;;;2.60;;
62947;SDS011;51940;52.126;-0.994;2023-02-26T06:02:55;11.40;;;3.00;;
62947;SDS011;51940;52.126;-0.994;2023-02-26T06:05:22;8.10;;;3.00;;
62947;SDS011;51940;52.126;-0.994;2023-02-26T06:07:47;8.70;;;2.80;;
62947;SDS011;51940;52.126;-0.994;2023-02-26T06:10:13;9.60;;;3.00;;
62947;SDS011;51940;52.126;-0.994;2023-02-26T06:12:38;5.50;;;2.30;;
62947;SDS011;51940;52.126;-0.994;2023-02-26T06:15:05;7.70;;;3.50;;
62947;SDS011;51940;52.126;-0.994;2023-02-26T06:17:32;8.00;;;2.40;;
62947;SDS011;51940;52.126;-0.994;2023-02-26T06:19:57;4.70;;;2.40;;
62947;SDS011;51940;52.126;-0.994;2023-02-26T06:22:23;3.60;;;2.30;;
62947;SDS011;51940;52.126;-0.994;2023-02-26T06:24:48;9.10;;;2.50;;
62947;SDS011;51940;52.126;-0.994;2023-02-26T06:27:14;10.70;;;2.60;;
62947;SDS011;51940;52.126;-0.994;2023-02-26T06:29:40;12.10;;;3.00;;
62947;SDS011;51940;52.126;-0.994;2023-02-26T06:32:06;5.60;;;2.60;;
62947;SDS011;51940;52.126;-0.994;2023-02-26T06:34:34;7.40;;;2.60;;
62947;SDS011;51940;52.126;-0.994;2023-02-26T06:36:59;7.00;;;2.40;;
62947;SDS011;51940;52.126;-0.994;2023-02-26T06:39:25;8.00;;;2.60;;
62947;SDS011;51940;52.126;-0.994;2023-02-26T06:41:51;9.80;;;2.40;;
62947;SDS011;51940;52.126;-0.994;2023-02-26T06:44:17;8.10;;;2.50;;
62947;SDS011;51940;52.126;-0.994;2023-02-26T06:46:42;7.40;;;2.20;;
62947;SDS011;51940;52.126;-0.994;2023-02-26T06:49:09;8.00;;;2.90;;
62947;SDS011;51940;52.126;-0.994;2023-02-26T06:51:35;8.90;;;2.60;;
62947;SDS011;51940;52.126;-0.994;2023-02-26T06:54:01;8.20;;;2.50;;
62947;SDS011;51940;52.126;-0.994;2023-02-26T06:56:26;9.20;;;2.50;;
62947;SDS011;51940;52.126;-0.994;2023-02-26T06:58:53;12.40;;;2.80;;
62947;SDS011;51940;52.126;-0.994;2023-02-26T07:01:19;10.50;;;2.90;;
62947;SDS011;51940;52.126;-0.994;2023-02-26T07:03:45;10.80;;;2.50;;
62947;SDS011;51940;52.126;-0.994;2023-02-26T07:06:10;6.20;;;2.00;;
62947;SDS011;51940;52.126;-0.994;2023-02-26T07:08:37;11.40;;;2.10;;
62947;SDS011;51940;52.126;-0.994;2023-02-26T07:11:03;8.80;;;2.50;;
62947;SDS011;51940;52.126;-0.994;2023-02-26T07:13:29;10.10;;;2.50;;
62947;SDS011;51940;52.126;-0.994;2023-02-26T07:15:54;9.80;;;2.50;;
62947;SDS011;51940;52.126;-0.994;2023-02-26T07:18:20;5.20;;;2.10;;
62947;SDS011;51940;52.126;-0.994;2023-02-26T07:20:47;5.70;;;2.30;;
62947;SDS011;51940;52.126;-0.994;2023-02-26T07:23:14;8.80;;;2.30;;
62947;SDS011;51940;52.126;-0.994;2023-02-26T07:25:40;8.70;;;2.20;;
62947;SDS011;51940;52.126;-0.994;2023-02-26T07:28:06;9.00;;;2.20;;
62947;SDS011;51940;52.126;-0.994;2023-02-26T07:30:31;9.90;;;3.40;;
62947;SDS011;51940;52.126;-0.994;2023-02-26T07:32:57;7.10;;;2.90;;
62947;SDS011;51940;52.126;-0.994;2023-02-26T07:35:23;11.00;;;2.30;;
62947;SDS011;51940;52.126;-0.994;2023-02-26T07:37:49;7.10;;;2.30;;
62947;SDS011;51940;52.126;-0.994;2023-02-26T07:40:16;5.80;;;2.30;;
62947;SDS011;51940;52.126;-0.994;2023-02-26T07:42:42;8.30;;;2.10;;
62947;SDS011;51940;52.126;-0.994;2023-02-26T07:45:07;6.60;;;1.90;;
62947;SDS011;51940;52.126;-0.994;2023-02-26T07:47:33;8.20;;;2.20;;
62947;SDS011;51940;52.126;-0.994;2023-02-26T07:50:00;8.70;;;2.50;;
62947;SDS011;51940;52.126;-0.994;2023-02-26T07:52:26;5.60;;;2.30;;
62947;SDS011;51940;52.126;-0.994;2023-02-26T07:54:53;7.50;;;2.20;;
62947;SDS011;51940;52.126;-0.994;2023-02-26T07:57:18;8.60;;;2.30;;
62947;SDS011;51940;52.126;-0.994;2023-02-26T07:59:44;11.80;;;2.50;;
62947;SDS011;51940;52.126;-0.994;2023-02-26T08:02:10;10.30;;;2.80;;
62947;SDS011;51940;52.126;-0.994;2023-02-26T08:04:36;8.20;;;2.80;;
62947;SDS011;51940;52.126;-0.994;2023-02-26T08:07:01;5.00;;;2.10;;
62947;SDS011;51940;52.126;-0.994;2023-02-26T08:09:28;5.70;;;2.00;;
62947;SDS011;51940;52.126;-0.994;2023-02-26T08:11:55;9.30;;;2.00;;
62947;SDS011;51940;52.126;-0.994;2023-02-26T08:14:21;4.30;;;1.70;;
62947;SDS011;51940;52.126;-0.994;2023-02-26T08:16:47;6.60;;;2.30;;
62947;SDS011;51940;52.126;-0.994;2023-02-26T08:19:14;10.30;;;2.20;;
62947;SDS011;51940;52.126;-0.994;2023-02-26T08:21:39;4.50;;;2.10;;
62947;SDS011;51940;52.126;-0.994;2023-02-26T08:24:05;3.40;;;1.90;;
62947;SDS011;51940;52.126;-0.994;2023-02-26T08:26:33;6.40;;;2.50;;
62947;SDS011;51940;52.126;-0.994;2023-02-26T08:29:00;7.20;;;2.20;;
62947;SDS011;51940;52.126;-0.994;2023-02-26T08:31:25;8.20;;;1.90;;
62947;SDS011;51940;52.126;-0.994;2023-02-26T08:33:52;8.00;;;2.30;;
62947;SDS011;51940;52.126;-0.994;2023-02-26T08:36:18;8.50;;;1.80;;
62947;SDS011;51940;52.126;-0.994;2023-02-26T08:38:43;11.00;;;2.30;;
62947;SDS011;51940;52.126;-0.994;2023-02-26T08:41:08;7.80;;;2.40;;
62947;SDS011;51940;52.126;-0.994;2023-02-26T08:43:34;11.10;;;2.90;;
62947;SDS011;51940;52.126;-0.994;2023-02-26T08:46:01;10.60;;;2.40;;
62947;SDS011;51940;52.126;-0.994;2023-02-26T08:48:28;6.80;;;1.90;;
62947;SDS011;51940;52.126;-0.994;2023-02-26T08:50:53;9.80;;;2.00;;
62947;SDS011;51940;52.126;-0.994;2023-02-26T08:53:19;9.10;;;2.10;;
62947;SDS011;51940;52.126;-0.994;2023-02-26T08:55:51;7.30;;;2.00;;
62947;SDS011;51940;52.126;-0.994;2023-02-26T08:58:17;9.50;;;2.90;;
62947;SDS011;51940;52.126;-0.994;2023-02-26T09:00:45;6.70;;;1.90;;
62947;SDS011;51940;52.126;-0.994;2023-02-26T09:03:10;10.20;;;2.10;;
62947;SDS011;51940;52.126;-0.994;2023-02-26T09:05:36;6.00;;;2.20;;
62947;SDS011;51940;52.126;-0.994;2023-02-26T09:08:03;7.80;;;2.00;;
62947;SDS011;51940;52.126;-0.994;2023-02-26T09:10:28;7.50;;;1.80;;
62947;SDS011;51940;52.126;-0.994;2023-02-26T09:12:54;10.10;;;2.00;;
62947;SDS011;51940;52.126;-0.994;2023-02-26T09:15:20;6.90;;;1.80;;
62947;SDS011;51940;52.126;-0.994;2023-02-26T09:17:46;9.70;;;2.20;;
62947;SDS011;51940;52.126;-0.994;2023-02-26T09:20:12;8.40;;;2.50;;
62947;SDS011;51940;52.126;-0.994;2023-02-26T09:22:39;5.90;;;1.70;;
62947;SDS011;51940;52.126;-0.994;2023-02-26T09:25:05;5.10;;;1.80;;
62947;SDS011;51940;52.126;-0.994;2023-02-26T09:27:32;10.40;;;2.00;;
62947;SDS011;51940;52.126;-0.994;2023-02-26T09:29:59;7.20;;;1.70;;
62947;SDS011;51940;52.126;-0.994;2023-02-26T09:32:25;6.50;;;1.90;;
62947;SDS011;51940;52.126;-0.994;2023-02-26T09:34:51;5.70;;;1.80;;
62947;SDS011;51940;52.126;-0.994;2023-02-26T09:37:17;5.90;;;1.90;;
62947;SDS011;51940;52.126;-0.994;2023-02-26T09:39:43;4.30;;;1.80;;
62947;SDS011;51940;52.126;-0.994;2023-02-26T09:44:49;7.10;;;1.80;;
62947;SDS011;51940;52.126;-0.994;2023-02-26T09:47:25;5.90;;;1.90;;
62947;SDS011;51940;52.126;-0.994;2023-02-26T09:50:00;6.00;;;2.30;;
62947;SDS011;51940;52.126;-0.994;2023-02-26T09:55:03;4.20;;;1.60;;
62947;SDS011;51940;52.126;-0.994;2023-02-26T09:57:37;8.50;;;1.60;;
62947;SDS011;51940;52.126;-0.994;2023-02-26T10:00:17;6.30;;;2.40;;
62947;SDS011;51940;52.126;-0.994;2023-02-26T10:08:17;4.60;;;1.30;;
62947;SDS011;51940;52.126;-0.994;2023-02-26T10:13:42;7.10;;;1.60;;
62947;SDS011;51940;52.126;-0.994;2023-02-26T10:16:20;5.30;;;1.80;;
62947;SDS011;51940;52.126;-0.994;2023-02-26T10:18:56;5.50;;;1.40;;
62947;SDS011;51940;52.126;-0.994;2023-02-26T10:21:29;4.10;;;1.40;;
62947;SDS011;51940;52.126;-0.994;2023-02-26T10:23:59;6.60;;;1.40;;
62947;SDS011;51940;52.126;-0.994;2023-02-26T10:26:38;9.30;;;1.50;;
62947;SDS011;51940;52.126;-0.994;2023-02-26T10:29:14;6.00;;;1.30;;
62947;SDS011;51940;52.126;-0.994;2023-02-26T10:35:04;3.10;;;1.70;;
62947;SDS011;51940;52.126;-0.994;2023-02-26T10:37:45;6.80;;;1.60;;
62947;SDS011;51940;52.126;-0.994;2023-02-26T10:40:30;7.00;;;1.70;;
62947;SDS011;51940;52.126;-0.994;2023-02-26T10:48:27;5.60;;;1.20;;
62947;SDS011;51940;52.126;-0.994;2023-02-26T10:51:23;8.20;;;1.50;;
62947;SDS011;51940;52.126;-0.994;2023-02-26T10:54:14;3.70;;;1.40;;
62947;SDS011;51940;52.126;-0.994;2023-02-26T10:56:46;2.50;;;1.30;;
62947;SDS011;51940;52.126;-0.994;2023-02-26T10:59:12;5.00;;;1.50;;
62947;SDS011;51940;52.126;-0.994;2023-02-26T11:01:39;6.80;;;1.40;;
62947;SDS011;51940;52.126;-0.994;2023-02-26T11:04:14;5.20;;;1.70;;
62947;SDS011;51940;52.126;-0.994;2023-02-26T11:06:55;5.00;;;1.90;;
62947;SDS011;51940;52.126;-0.994;2023-02-26T11:09:24;4.20;;;2.00;;
62947;SDS011;51940;52.126;-0.994;2023-02-26T11:12:15;4.40;;;2.00;;
62947;SDS011;51940;52.126;-0.994;2023-02-26T11:14:42;3.20;;;1.60;;
62947;SDS011;51940;52.126;-0.994;2023-02-26T11:17:28;4.30;;;2.10;;
62947;SDS011;51940;52.126;-0.994;2023-02-26T11:19:58;4.70;;;2.10;;
62947;SDS011;51940;52.126;-0.994;2023-02-26T11:22:31;3.10;;;1.80;;
62947;SDS011;51940;52.126;-0.994;2023-02-26T11:25:00;4.80;;;2.20;;
62947;SDS011;51940;52.126;-0.994;2023-02-26T11:27:33;4.30;;;2.00;;
62947;SDS011;51940;52.126;-0.994;2023-02-26T11:30:20;3.50;;;1.80;;
62947;SDS011;51940;52.126;-0.994;2023-02-26T11:32:51;5.50;;;2.10;;
62947;SDS011;51940;52.126;-0.994;2023-02-26T11:35:25;2.40;;;1.70;;
62947;SDS011;51940;52.126;-0.994;2023-02-26T11:38:04;2.70;;;1.70;;
62947;SDS011;51940;52.126;-0.994;2023-02-26T11:40:40;2.70;;;1.70;;
62947;SDS011;51940;52.126;-0.994;2023-02-26T11:43:15;3.50;;;1.40;;
62947;SDS011;51940;52.126;-0.994;2023-02-26T11:45:47;1.90;;;1.30;;
62947;SDS011;51940;52.126;-0.994;2023-02-26T11:48:25;1.70;;;1.20;;
62947;SDS011;51940;52.126;-0.994;2023-02-26T11:51:05;4.60;;;1.40;;
62947;SDS011;51940;52.126;-0.994;2023-02-26T11:53:41;3.50;;;1.40;;
62947;SDS011;51940;52.126;-0.994;2023-02-26T11:56:49;2.50;;;1.10;;
62947;SDS011;51940;52.126;-0.994;2023-02-26T11:59:16;2.30;;;1.10;;
62947;SDS011;51940;52.126;-0.994;2023-02-26T12:01:44;4.00;;;1.10;;
62947;SDS011;51940;52.126;-0.994;2023-02-26T12:04:17;3.60;;;1.80;;
62947;SDS011;51940;52.126;-0.994;2023-02-26T12:06:48;1.20;;;1.00;;
62947;SDS011;51940;52.126;-0.994;2023-02-26T12:09:16;2.60;;;1.60;;
62947;SDS011;51940;52.126;-0.994;2023-02-26T12:11:50;5.20;;;1.30;;
62947;SDS011;51940;52.126;-0.994;2023-02-26T12:26:32;5.40;;;1.20;;
62947;SDS011;51940;52.126;-0.994;2023-02-26T12:34:31;4.60;;;1.20;;
62947;SDS011;51940;52.126;-0.994;2023-02-26T12:38:03;3.00;;;1.30;;
62947;SDS011;51940;52.126;-0.994;2023-02-26T12:41:19;6.10;;;1.40;;
62947;SDS011;51940;52.126;-0.994;2023-02-26T12:43:19;3.80;;;1.10;;
62947;SDS011;51940;52.126;-0.994;2023-02-26T12:52:41;2.80;;;1.30;;
62947;SDS011;51940;52.126;-0.994;2023-02-26T13:11:46;2.10;;;1.50;;
62947;SDS011;51940;52.126;-0.994;2023-02-26T13:19:42;2.50;;;1.40;;
62947;SDS011;51940;52.126;-0.994;2023-02-26T13:25:13;1.50;;;1.30;;
62947;SDS011;51940;52.126;-0.994;2023-02-26T13:27:47;1.80;;;1.10;;
62947;SDS011;51940;52.126;-0.994;2023-02-26T13:30:33;2.10;;;1.40;;
62947;SDS011;51940;52.126;-0.994;2023-02-26T13:33:06;3.70;;;1.40;;
62947;SDS011;51940;52.126;-0.994;2023-02-26T13:35:39;1.40;;;1.00;;
62947;SDS011;51940;52.126;-0.994;2023-02-26T13:52:26;2.00;;;1.40;;
62947;SDS011;51940;52.126;-0.994;2023-02-26T13:54:54;3.50;;;1.20;;
62947;SDS011;51940;52.126;-0.994;2023-02-26T14:00:27;2.20;;;1.40;;
62947;SDS011;51940;52.126;-0.994;2023-02-26T14:03:44;7.00;;;1.80;;
62947;SDS011;51940;52.126;-0.994;2023-02-26T14:05:54;3.90;;;1.40;;
62947;SDS011;51940;52.126;-0.994;2023-02-26T14:08:43;2.00;;;1.40;;
62947;SDS011;51940;52.126;-0.994;2023-02-26T14:11:23;1.90;;;1.40;;
62947;SDS011;51940;52.126;-0.994;2023-02-26T14:16:34;2.70;;;1.40;;
62947;SDS011;51940;52.126;-0.994;2023-02-26T14:19:43;3.00;;;1.30;;
62947;SDS011;51940;52.126;-0.994;2023-02-26T14:22:00;2.30;;;1.30;;
62947;SDS011;51940;52.126;-0.994;2023-02-26T14:24:36;2.70;;;1.20;;
62947;SDS011;51940;52.126;-0.994;2023-02-26T14:27:30;2.90;;;1.50;;
62947;SDS011;51940;52.126;-0.994;2023-02-26T14:30:04;3.10;;;1.40;;
62947;SDS011;51940;52.126;-0.994;2023-02-26T14:35:30;4.00;;;1.90;;
62947;SDS011;51940;52.126;-0.994;2023-02-26T14:37:58;3.70;;;1.80;;
62947;SDS011;51940;52.126;-0.994;2023-02-26T14:40:28;2.30;;;1.30;;
62947;SDS011;51940;52.126;-0.994;2023-02-26T14:43:00;2.90;;;1.40;;
62947;SDS011;51940;52.126;-0.994;2023-02-26T14:45:29;2.00;;;1.20;;
62947;SDS011;51940;52.126;-0.994;2023-02-26T14:47:59;3.40;;;1.20;;
62947;SDS011;51940;52.126;-0.994;2023-02-26T14:50:32;2.10;;;1.30;;
62947;SDS011;51940;52.126;-0.994;2023-02-26T15:01:56;2.30;;;1.30;;
62947;SDS011;51940;52.126;-0.994;2023-02-26T15:07:56;2.90;;;1.70;;
62947;SDS011;51940;52.126;-0.994;2023-02-26T15:13:54;2.40;;;1.80;;
62947;SDS011;51940;52.126;-0.994;2023-02-26T15:16:54;3.90;;;2.20;;
62947;SDS011;51940;52.126;-0.994;2023-02-26T15:25:15;3.80;;;2.10;;
62947;SDS011;51940;52.126;-0.994;2023-02-26T15:27:58;3.30;;;2.20;;
62947;SDS011;51940;52.126;-0.994;2023-02-26T15:30:25;4.80;;;1.60;;
62947;SDS011;51940;52.126;-0.994;2023-02-26T15:32:57;1.60;;;1.50;;
62947;SDS011;51940;52.126;-0.994;2023-02-26T15:35:25;4.20;;;1.70;;
62947;SDS011;51940;52.126;-0.994;2023-02-26T15:37:53;3.60;;;2.20;;
62947;SDS011;51940;52.126;-0.994;2023-02-26T15:40:21;4.30;;;1.90;;
62947;SDS011;51940;52.126;-0.994;2023-02-26T15:42:51;3.30;;;1.90;;
62947;SDS011;51940;52.126;-0.994;2023-02-26T15:45:24;3.10;;;1.70;;
62947;SDS011;51940;52.126;-0.994;2023-02-26T15:48:05;2.60;;;1.40;;
62947;SDS011;51940;52.126;-0.994;2023-02-26T15:50:40;3.90;;;1.60;;
62947;SDS011;51940;52.126;-0.994;2023-02-26T15:53:12;3.10;;;1.40;;
62947;SDS011;51940;52.126;-0.994;2023-02-26T15:55:49;3.10;;;1.30;;
62947;SDS011;51940;52.126;-0.994;2023-02-26T15:58:19;2.10;;;1.30;;
62947;SDS011;51940;52.126;-0.994;2023-02-26T16:00:55;4.10;;;1.50;;
62947;SDS011;51940;52.126;-0.994;2023-02-26T16:03:25;5.30;;;1.50;;
62947;SDS011;51940;52.126;-0.994;2023-02-26T16:05:54;2.50;;;1.40;;
62947;SDS011;51940;52.126;-0.994;2023-02-26T16:08:22;4.90;;;1.50;;
62947;SDS011;51940;52.126;-0.994;2023-02-26T16:10:47;2.10;;;1.50;;
62947;SDS011;51940;52.126;-0.994;2023-02-26T16:13:19;5.40;;;1.90;;
62947;SDS011;51940;52.126;-0.994;2023-02-26T16:15:51;2.60;;;1.50;;
62947;SDS011;51940;52.126;-0.994;2023-02-26T16:18:19;1.50;;;1.30;;
62947;SDS011;51940;52.126;-0.994;2023-02-26T16:20:49;1.60;;;1.30;;
62947;SDS011;51940;52.126;-0.994;2023-02-26T16:23:22;4.60;;;1.20;;
62947;SDS011;51940;52.126;-0.994;2023-02-26T16:25:53;1.80;;;1.30;;
62947;SDS011;51940;52.126;-0.994;2023-02-26T16:28:23;2.80;;;1.30;;
62947;SDS011;51940;52.126;-0.994;2023-02-26T16:30:56;3.90;;;1.20;;
62947;SDS011;51940;52.126;-0.994;2023-02-26T16:33:24;5.30;;;1.30;;
62947;SDS011;51940;52.126;-0.994;2023-02-26T16:35:53;3.10;;;1.40;;
62947;SDS011;51940;52.126;-0.994;2023-02-26T16:38:27;5.20;;;1.50;;
62947;SDS011;51940;52.126;-0.994;2023-02-26T16:40:58;2.80;;;1.30;;
62947;SDS011;51940;52.126;-0.994;2023-02-26T16:43:32;1.40;;;1.30;;
62947;SDS011;51940;52.126;-0.994;2023-02-26T16:46:02;3.70;;;1.40;;
62947;SDS011;51940;52.126;-0.994;2023-02-26T16:49:31;3.20;;;1.30;;
62947;SDS011;51940;52.126;-0.994;2023-02-26T16:51:37;6.20;;;1.70;;
62947;SDS011;51940;52.126;-0.994;2023-02-26T16:54:13;2.50;;;1.30;;
62947;SDS011;51940;52.126;-0.994;2023-02-26T16:57:05;2.80;;;1.40;;
62947;SDS011;51940;52.126;-0.994;2023-02-26T17:02:12;2.90;;;1.30;;
62947;SDS011;51940;52.126;-0.994;2023-02-26T17:04:45;4.10;;;1.50;;
62947;SDS011;51940;52.126;-0.994;2023-02-26T17:07:35;7.80;;;2.00;;
62947;SDS011;51940;52.126;-0.994;2023-02-26T17:10:08;2.80;;;1.50;;
62947;SDS011;51940;52.126;-0.994;2023-02-26T17:12:53;1.70;;;1.40;;
62947;SDS011;51940;52.126;-0.994;2023-02-26T17:15:33;2.30;;;1.10;;
62947;SDS011;51940;52.126;-0.994;2023-02-26T17:18:04;1.50;;;1.20;;
62947;SDS011;51940;52.126;-0.994;2023-02-26T17:20:33;2.60;;;1.70;;
62947;SDS011;51940;52.126;-0.994;2023-02-26T17:23:01;1.70;;;1.30;;
62947;SDS011;51940;52.126;-0.994;2023-02-26T17:25:50;2.80;;;1.50;;
62947;SDS011;51940;52.126;-0.994;2023-02-26T17:28:26;2.10;;;1.20;;
62947;SDS011;51940;52.126;-0.994;2023-02-26T17:30:55;2.30;;;1.60;;
62947;SDS011;51940;52.126;-0.994;2023-02-26T17:33:27;1.50;;;1.40;;
62947;SDS011;51940;52.126;-0.994;2023-02-26T17:35:55;2.60;;;1.60;;
62947;SDS011;51940;52.126;-0.994;2023-02-26T17:38:23;2.00;;;1.50;;
62947;SDS011;51940;52.126;-0.994;2023-02-26T17:40:49;1.90;;;1.50;;
62947;SDS011;51940;52.126;-0.994;2023-02-26T17:43:18;4.30;;;1.90;;
62947;SDS011;51940;52.126;-0.994;2023-02-26T17:45:45;5.90;;;2.40;;